Pagrindinis puslapis
METAR-TAF:

METAR-TAF

Oro uostai :

Piarko tarptautinis oro uostas

Port of Speinas, Trinidadas, Trinidadas ir Tobagas

platuma: 10-37N, ilguma: 061-21W, Aukštis: 12 m

Dabartinis oras

Ataskaita buvo paskelbta 34 minutes, ne 07:00 UTC
Ramus vėjas
Temperatūra 26°C
Drėgmė 89%
Slėgis 1011 hPa
Matomumas 10 km arba daugiau
Mažai debesys ne aukštis 1500 ft

METAR: TTPP 220700Z 00000KT 9999 FEW015 26/24 Q1011 NOSIG

Laikas: 03:34 (07:34 UTC)

Prognozė

Ataskaita buvo paskelbta 3 valandos ir 34 minutes, ne 04:00 UTC
Prognozė galioja nuo 22 metu 06 UTC su 23 metu 06 UTC
Vėjas kt iš Šiaurės
Matomumas 10 km arba daugiau
Mažai debesys ne aukštis 1800 ft
Tapsmas
nuo 22 metu 12 UTC su 22 metu 14 UTC
Vėjas 10 kt iš Rytų/Pietryčių

TAF: TTPP 220400Z 2206/2306 00000KT 9999 FEW018 BECMG 2212/2214 11010KT

Orai ataskaitas ir orų prognozės (METAR, TAF).

turimą stotys yra geltonos ir raudonos taškus žemėlapyje.

Perkelti pele per norėdami pamatyti stoties vardą.

Tada spustelėkite, norėdami matyti oro stebėjimo ir prognozės.

Norėdami pakeisti žemėlapį: spustelėkite ant žalios mygtukų su juodo kryžiaus žemyn,; žalią mygtuką su brūkšneliu, jei norite nutolinti; arba žalių rodyklių gretimoms žemėlapius.


METAR-TAF: